Tonopah, Nevada Weather observations

Data are for observation ending at time listed.
 Day   Time    Ave.   Ave.  Ave.  Vector   Max.   Stn.    Total    Solar   Ave.  
  of    of     Air    Rel.  Wind   Wind    Wind   Baro.  Precip.   Rad.    Soil  
Year   Day     Temp.  Hum.  Speed  Dir.    Gust   Pres.                    Temp. 
2015   (PST)    F      %     mph   deg.    mph     mb.     in.     W/m2     F   
------------------------------------------------------------------------------
  24   17:00   47.1    29    8.2   272     13.6   820.4    0.00       9    39.6
  24   17:10   46.4    30    7.0   276      9.8   820.5    0.00       4    39.5
  24   17:20   46.0    31    8.0   264     12.5   820.6    0.00       4    39.5
  24   17:30   45.8    31    8.6   263     13.0   820.7    0.00       3    39.5
  24   17:40   45.1    32    7.4   285     11.3   820.8    0.00       0    39.4
  24   17:50   44.1    33    6.7   275      9.6   820.9    0.00       0    39.3
  24   18:00   43.2    34    6.5   275      9.8   821.0    0.00       0    39.3
  24   18:10   43.2    35    7.4   285     11.8   821.1    0.00       0    39.2
  24   18:20   43.6    35    6.5   284     10.0   821.2    0.00       0    39.2
  24   18:30   42.8    36    6.6   266      8.9   821.2    0.00       1    39.1
  24   18:40   42.6    37    5.1   266      6.9   821.3    0.00       0    39.0
  24   18:50   42.6    36    5.2   272      7.7   821.4    0.00       0    38.9
  24   19:00   42.8    36    5.2   290      9.4   821.4    0.00       0    38.9
  24   19:10   42.6    36    6.0   271     11.0   821.4    0.00       0    38.8
  24   19:20   42.3    37    5.4   284      9.0   821.4    0.00       0    38.7
  24   19:30   41.3    39    4.6   281      6.1   821.3    0.00       0    38.6
  24   19:40   41.0    40    5.2   276      7.3   821.4    0.00       0    38.6
  24   19:50   41.0    40    3.3   264      6.4   821.5    0.00       0    38.5
  24   20:00   40.7    40    3.6   296      6.5   821.5    0.00       0    38.4
  24   20:10   40.9    40    4.2   277      6.6   821.4    0.00       0    38.3
  24   20:20   40.5    41    4.6   254      7.9   821.4    0.00       0    38.2
  24   20:30   40.7    40    2.7   258      4.3   821.4    0.00       0    38.2
  24   20:40   39.5    43    2.1   253      5.3   821.4    0.00       0    38.1
  24   20:50   39.7    43    4.8   241      6.5   821.3    0.00       0    38.0
  24   21:00   41.1    42    3.9   234      6.1   821.4    0.00       0    37.9
  24   21:10   40.7    43    4.9   268      7.6   821.5    0.00       0    37.8
  24   21:20   40.4    44    5.7   273      8.5   821.6    0.00       0    37.8
  24   21:30   39.9    45    4.8   257      7.5   821.6    0.00       0    37.7
  24   21:40   39.9    46    6.2   257     10.5   821.7    0.00       0    37.6
  24   21:50   39.9    47    6.2   253      9.1   821.7    0.00       0    37.5
  24   22:00   40.4    48    5.8   263     10.0   821.7    0.00       0    37.4
  24   22:10   40.2    47    5.8   259      9.8   821.8    0.00       0    37.4
  24   22:20   40.0    48    6.0   260      9.0   821.8    0.00       0    37.3
  24   22:30   39.2    49    6.2   251      8.7   821.8    0.00       0    37.2
  24   22:40   38.9    50    6.0   240      8.3   822.0    0.00       1    37.2
  24   22:50   39.1    52    5.0   244      8.4   822.2    0.00       0    37.1
  24   23:00   39.1    53    4.2   248      7.5   822.2    0.00       0    37.0
  24   23:10   38.6    55    3.6   252      5.9   822.2    0.00       0    37.0
  24   23:20   38.2    56    3.1   258      5.6   822.2    0.00       0    36.9
  24   23:30   37.8    56    1.9   283      4.3   822.3    0.00       0    36.8
  24   23:40   37.3    58    3.8   265      6.7   822.1    0.00       0    36.7
  24   23:50   38.0    57    6.5   266     11.5   822.1    0.00       0    36.7
  25    0:00   38.7    57    8.2   285     14.6   822.1    0.00       0    36.6
  25    0:10   39.7    55    7.1   285     12.6   822.0    0.00       0    36.5
  25    0:20   39.4    56    6.7   283     12.5   821.9    0.00       0    36.5
  25    0:30   38.0    58    4.9   262      7.4   821.8    0.00       1    36.4
  25    0:40   37.1    59    3.8   248      7.4   821.7    0.00       0    36.4
  25    0:50   36.3    60    0.9   300      3.4   821.7    0.00       0    36.3
  25    1:00   35.7    62    1.8   263      5.8   821.6    0.00       0    36.3
  25    1:10   36.0    61    1.4   252      6.2   821.6    0.00       0    36.2
  25    1:20   36.3    62    3.2   243      6.1   821.6    0.00       0    36.1
  25    1:30   36.4    62    3.0   255      5.2   821.6    0.00       0    36.1
  25    1:40   37.1    63    5.7   261      7.5   821.6    0.00       0    36.0
  25    1:50   37.8    62    6.4   266      9.0   821.6    0.00       0    36.0
  25    2:00   37.4    63    7.1   273     10.2   821.6    0.00       0    35.9
  25    2:10   37.1    64    6.2   266      9.3   821.5    0.00       0    35.8
  25    2:20   37.0    64    5.0   268      7.3   821.6    0.00       0    35.8
  25    2:30   36.7    65    5.8   269      7.5   821.5    0.00       0    35.7
  25    2:40   36.4    66    6.4   273      9.6   821.5    0.00       0    35.7
  25    2:50   36.2    68    6.5   276      8.7   821.4    0.00       0    35.6
  25    3:00   36.0    68    7.2   282     10.7   821.3    0.00       0    35.6
  25    3:10   35.6    68    6.3   288      9.5   821.2    0.00       0    35.5
  25    3:20   35.8    68    6.5   270      9.6   821.3    0.00       0    35.5
  25    3:30   36.0    68    7.0   272      9.7   821.2    0.00       0    35.4
  25    3:40   36.4    69    7.5   272     10.2   821.1    0.00       0    35.4
  25    3:50   37.9    67    8.8   263     11.8   821.0    0.00       0    35.4
  25    4:00   37.7    67    7.5   271     10.5   821.0    0.00       0    35.3
  25    4:10   37.5    68    8.1   263     12.0   821.0    0.00       0    35.3
  25    4:20   37.9    67    8.4   266     11.1   820.9    0.00       0    35.3
  25    4:30   37.3    69    7.5   272     10.1   820.9    0.00       0    35.2
  25    4:40   37.0    69    7.2   278     11.3   820.9    0.00       0    35.2
  25    4:50   37.1    69    8.0   274     11.5   820.8    0.00       0    35.2
  25    5:00   37.1    69    8.3   276     11.3   820.8    0.00       0    35.2
  25    5:10   36.8    70    7.7   274     10.4   820.8    0.00       0    35.1
  25    5:20   36.5    71    7.0   276      9.6   820.9    0.00       0    35.1
  25    5:30   36.8    71    5.8   277      7.7   821.0    0.00       0    35.1
  25    5:40   37.8    69    7.4   270     10.5   821.0    0.00       0    35.1
  25    5:50   38.3    66    8.0   272     11.8   821.1    0.00       0    35.1
  25    6:00   38.0    66    7.7   274     10.8   821.1    0.00       0    35.0
  25    6:10   37.4    66    6.9   276      9.9   821.2    0.00       1    35.0
  25    6:20   37.0    67    6.7   273     10.2   821.2    0.00       0    35.0
  25    6:30   37.5    67    6.5   282      9.2   821.3    0.00       0    35.0
  25    6:40   36.4    69    4.6   292      6.6   821.3    0.00       1    35.0
  25    6:50   36.3    71    6.1   270      9.2   821.3    0.00       4    34.9
  25    7:00   37.7    68    6.0   277      8.2   821.4    0.00       4    34.9
  25    7:10   37.8    66    6.9   279     10.9   821.4    0.00       5    34.9
  25    7:20   38.3    62    7.3   273     10.3   821.4    0.00      15    34.9
  25    7:30   38.5    62    5.4   281      9.2   821.5    0.00      44    34.9
  25    7:40   39.2    60    3.1   292      6.6   821.6    0.00      74    34.9
  25    7:50   39.2    61    5.5   270      9.1   821.5    0.00     112    34.9
  25    8:00   39.4    63    5.0   268      8.6   821.5    0.00     145    34.9
  25    8:10   40.2    62    3.4   285      5.1   821.7    0.00     172    34.9
  25    8:20   40.0    61    4.3   295      6.2   821.7    0.00     200    34.9
  25    8:30   40.7    61    2.6   300      5.6   821.9    0.00     232    34.9
  25    8:40   41.8    60    5.2   255      8.6   822.0    0.00     264    34.9
  25    8:50   42.8    57    4.0   271      7.2   822.1    0.00     292    35.0
  25    9:00   42.8    57    6.3   281      9.8   822.0    0.00     319    35.0
  25    9:10   42.1    58    6.8   279      9.3   822.0    0.00     347    35.1
  25    9:20   42.0    58    8.4   289     11.0   822.0    0.00     373    35.2
  25    9:30   42.6    57    5.9   279      9.6   822.0    0.00     402    35.3
  25    9:40   43.6    56    5.6   274      8.0   822.0    0.00     428    35.4
  25    9:50   45.2    54    6.3   273      9.4   822.0    0.00     451    35.5
  25   10:00   45.5    53    6.1   263      8.8   822.1    0.00     476    35.7
  25   10:10   45.9    52    7.5   282     10.7   822.0    0.00     494    35.8
  25   10:20   46.1    52    7.8   277     10.7   822.1    0.00     515    35.9
  25   10:30   46.5    50    7.7   275     11.7   822.1    0.00     533    36.1
  25   10:40   46.9    50    7.3   278     10.9   822.1    0.00     548    36.3
  25   10:50   47.2    49    7.4   284     11.1   822.1    0.00     562    36.6
  25   11:00   47.2    50    8.2   283     12.3   822.0    0.00     576    36.8
  25   11:10   47.5    49    7.3   283     10.2   821.8    0.00     588    37.0
  25   11:20   47.8    48    6.9   294     10.5   821.6    0.00     595    37.3
  25   11:30   48.4    47    7.1   289     10.9   821.4    0.00     604    37.5
  25   11:40   48.4    48    6.7   293     10.5   821.3    0.00     610    37.8
  25   11:50   49.2    46    5.9   295      9.7   821.1    0.00     613    38.0
  25   12:00   49.8    45    5.8   295      8.0   821.0    0.00     617    38.3
  25   12:10   50.2    44    5.7   292      8.0   820.8    0.00     619    38.6
  25   12:20   51.2    43    5.1   285      8.4   820.6    0.00     620    38.9
  25   12:30   52.1    41    5.2   272      8.6   820.4    0.00     621    39.2
  25   12:40   52.9    40    5.2   299      8.0   820.3    0.00     609    39.5
  25   12:50   53.2    40    4.8   296      7.6   820.1    0.00     604    39.8
  25   13:00   53.2    39    6.0   294      8.5   819.9    0.00     597    40.1
  25   13:10   53.4    38    5.3   280      9.4   819.8    0.00     592    40.4
  25   13:20   54.1    37    6.1   270      8.8   819.6    0.00     581    40.7
  25   13:30   54.0    37    5.8   278      8.6   819.6    0.00     568    41.0
  25   13:40   54.3    36    5.8   279      8.8   819.4    0.00     552    41.3
  25   13:50   54.5    35    5.4   293      8.8   819.4    0.00     533    41.6
  25   14:00   55.2    34    4.1   289      7.1   819.3    0.00     517    41.9
  25   14:10   56.2    33    4.4   290      7.5   819.2    0.00     498    42.1
  25   14:20   56.9    32    4.2   290      6.9   819.3    0.00     478    42.3
  25   14:30   57.5    32    4.2   291      6.4   819.2    0.00     455    42.6
  25   14:40   58.2    31    4.4   289      7.2   819.2    0.00     432    42.8
  25   14:50   58.3    31    4.8   289      8.0   819.2    0.00     406    43.0
  25   15:00   58.5    30    5.7   259      9.1   819.3    0.00     381    43.1
  25   15:10   58.4    30    5.5   273      8.4   819.2    0.00     356    43.3
  25   15:20   58.4    31    6.0   263      8.8   819.2    0.00     326    43.4
  25   15:30   58.0    31    5.7   262      8.3   819.2    0.00     298    43.6
  25   15:40   57.8    32    5.0   279      7.7   819.1    0.00     271    43.7
  25   15:50   57.4    32    4.6   281      7.0   819.0    0.00     240    43.8
  25   16:00   57.8    31    3.4   244      6.1   818.9    0.00     204    43.9
  25   16:10   57.8    30    3.3   240      5.6   819.0    0.00     173    43.9
  25   16:20   57.4    29    3.5   248      6.6   819.0    0.00      81    44.0
  25   16:30   54.0    34    3.9   247      6.1   819.0    0.00      18    44.0
  25   16:40   52.6    37    3.3   242      6.1   819.0    0.00      12    44.0
  25   16:50   52.3    36    2.2   257      4.5   818.9    0.00      11    43.9

Return to Tonopah, Nevada graphs page.


Western Regional Climate Center,wrcc@dri.edu